createdAt,value
2023-04-04T00:05:25.817Z,50.17
2023-04-04T00:11:22.818Z,50.42
2023-04-04T00:17:22.860Z,50.43
2023-04-04T00:23:23.191Z,49.98
2023-04-04T00:29:24.347Z,49.74
2023-04-04T00:35:22.879Z,50.85
2023-04-04T00:41:24.921Z,50.79
2023-04-04T00:47:22.933Z,52.44
2023-04-04T00:53:22.909Z,51.65
2023-04-04T00:59:22.972Z,53.26
2023-04-04T01:05:25.825Z,53.53
2023-04-04T01:11:22.894Z,54.02
2023-04-04T01:17:24.449Z,52.81
2023-04-04T01:23:22.913Z,52.42
2023-04-04T01:29:22.897Z,52.53
2023-04-04T01:35:25.145Z,51.40
2023-04-04T01:41:22.930Z,51.33
2023-04-04T01:47:22.944Z,50.78
2023-04-04T01:53:22.909Z,51.38
2023-04-04T01:59:23.043Z,50.57
2023-04-04T02:05:22.922Z,52.15
2023-04-04T02:11:22.954Z,51.37
2023-04-04T02:17:22.935Z,51.16
2023-04-04T02:23:22.954Z,51.86
2023-04-04T02:29:22.930Z,53.03
2023-04-04T02:35:22.933Z,52.74
2023-04-04T02:41:28.030Z,53.10
2023-04-04T02:47:25.158Z,54.44
2023-04-04T02:53:22.985Z,54.46
2023-04-04T02:59:23.110Z,54.27
2023-04-04T03:05:22.956Z,54.79
2023-04-04T03:11:22.989Z,53.82
2023-04-04T03:17:28.998Z,54.17
2023-04-04T03:23:22.980Z,55.30
2023-04-04T03:29:22.982Z,54.93
2023-04-04T03:35:22.979Z,56.18
2023-04-04T03:41:23.394Z,55.04
2023-04-04T03:47:23.030Z,57.00
2023-04-04T03:53:23.021Z,55.76
2023-04-04T03:59:23.126Z,55.38
2023-04-04T04:05:23.030Z,54.82
2023-04-04T04:11:22.999Z,56.09
2023-04-04T04:17:23.186Z,55.93
2023-04-04T04:23:23.032Z,55.89
2023-04-04T04:29:23.156Z,56.15
2023-04-04T04:35:23.210Z,56.51
2023-04-04T04:41:23.326Z,56.92
2023-04-04T04:47:23.113Z,56.41
2023-04-04T04:53:23.340Z,55.99
2023-04-04T04:59:23.331Z,57.27
2023-04-04T05:05:23.143Z,56.98
2023-04-04T05:11:23.099Z,58.25
2023-04-04T05:17:23.083Z,56.76
2023-04-04T05:23:23.034Z,56.71
2023-04-04T05:29:23.453Z,56.78
2023-04-04T05:35:23.237Z,56.04
2023-04-04T05:41:23.159Z,56.60
2023-04-04T05:47:23.124Z,56.30
2023-04-04T05:53:23.223Z,54.33
2023-04-04T05:59:23.180Z,54.44
2023-04-04T06:05:23.156Z,53.85
2023-04-04T06:11:23.160Z,53.93
2023-04-04T06:17:23.118Z,54.16
2023-04-04T06:23:23.120Z,54.77
2023-04-04T06:29:23.132Z,54.56
2023-04-04T06:35:23.095Z,54.27
2023-04-04T06:41:23.428Z,53.93
2023-04-04T06:47:23.155Z,52.83
2023-04-04T06:53:23.141Z,52.54
2023-04-04T06:59:23.180Z,53.09
2023-04-04T07:05:23.126Z,51.08
2023-04-04T07:11:23.140Z,51.46
2023-04-04T07:17:25.245Z,49.91
2023-04-04T07:23:23.170Z,51.24
2023-04-04T07:29:23.145Z,49.18
2023-04-04T07:35:23.175Z,48.57
2023-04-04T07:41:23.171Z,48.45
2023-04-04T07:47:23.203Z,47.62
2023-04-04T07:53:23.174Z,47.98
2023-04-04T07:59:23.238Z,47.54
2023-04-04T08:05:23.182Z,46.54
2023-04-04T08:11:24.668Z,46.30
2023-04-04T08:17:23.238Z,45.93
2023-04-04T08:23:23.220Z,42.35
2023-04-04T08:29:23.473Z,42.98
2023-04-04T08:35:23.280Z,43.20
2023-04-04T08:41:23.278Z,44.88
2023-04-04T08:47:23.310Z,46.07
2023-04-04T08:53:23.454Z,45.30
2023-04-04T08:59:23.289Z,45.91
2023-04-04T09:05:23.482Z,45.29
2023-04-04T09:11:23.361Z,44.53
2023-04-04T09:17:23.313Z,44.66
2023-04-04T09:23:23.303Z,43.32
2023-04-04T09:29:23.287Z,44.03
2023-04-04T09:35:23.291Z,44.15
2023-04-04T09:41:23.230Z,44.78
2023-04-04T09:47:30.501Z,43.88
2023-04-04T09:53:23.225Z,44.44
2023-04-04T09:59:23.396Z,41.78
2023-04-04T10:05:23.271Z,41.23
2023-04-04T10:11:24.140Z,40.75
2023-04-04T10:17:23.251Z,42.73
2023-04-04T10:23:23.323Z,38.45
2023-04-04T10:29:23.276Z,41.54
2023-04-04T10:35:23.316Z,41.50
2023-04-04T10:41:23.358Z,40.76
2023-04-04T10:47:23.527Z,40.96
2023-04-04T10:53:23.967Z,40.74
2023-04-04T10:59:23.320Z,40.62
2023-04-04T11:05:23.322Z,39.44
2023-04-04T11:11:23.357Z,38.99
2023-04-04T11:17:23.376Z,39.70
2023-04-04T11:23:23.411Z,38.10
2023-04-04T11:29:23.383Z,38.76
2023-04-04T11:35:23.741Z,39.01
2023-04-04T11:41:23.781Z,38.75
2023-04-04T11:47:23.373Z,40.25
2023-04-04T11:53:23.522Z,39.77
2023-04-04T11:59:23.467Z,38.81
2023-04-04T12:05:23.566Z,39.15
2023-04-04T12:11:23.397Z,36.14
2023-04-04T12:17:23.375Z,36.91
2023-04-04T12:23:23.389Z,35.58
2023-04-04T12:29:23.403Z,37.86
2023-04-04T12:35:23.418Z,35.14
2023-04-04T12:41:23.417Z,35.77
2023-04-04T12:47:23.396Z,35.78
2023-04-04T12:59:23.464Z,35.33
2023-04-04T13:05:23.459Z,35.68
2023-04-04T13:11:23.454Z,36.33
2023-04-04T13:17:23.461Z,36.31
2023-04-04T13:23:23.428Z,35.62
2023-04-04T13:29:23.463Z,36.41
2023-04-04T13:35:23.466Z,36.23
2023-04-04T13:41:23.457Z,34.68
2023-04-04T13:47:23.487Z,35.33
2023-04-04T13:53:23.510Z,36.55
2023-04-04T13:59:23.526Z,34.89
2023-04-04T14:05:23.485Z,35.25
2023-04-04T14:11:23.734Z,36.24
2023-04-04T14:17:23.487Z,34.03
2023-04-04T14:23:23.852Z,33.91
2023-04-04T14:29:23.629Z,33.40
2023-04-04T14:35:23.511Z,34.00
2023-04-04T14:41:23.626Z,33.58
2023-04-04T14:47:23.560Z,32.41
2023-04-04T14:53:23.507Z,32.73
2023-04-04T14:59:23.586Z,34.46
2023-04-04T15:05:23.538Z,34.57
2023-04-04T15:11:23.542Z,34.59
2023-04-04T15:17:23.566Z,33.69
2023-04-04T15:23:23.531Z,32.54
2023-04-04T15:29:23.529Z,34.78
2023-04-04T15:35:23.518Z,35.12
2023-04-04T15:41:23.551Z,34.63
2023-04-04T15:47:23.562Z,35.66
2023-04-04T15:53:23.568Z,36.04
2023-04-04T15:59:23.663Z,36.79
2023-04-04T16:05:23.581Z,36.75
2023-04-04T16:11:23.575Z,36.90
2023-04-04T16:17:23.603Z,36.82
2023-04-04T16:23:23.665Z,36.78
2023-04-04T16:29:23.608Z,38.14
2023-04-04T16:35:23.628Z,38.37
2023-04-04T16:41:23.599Z,39.56
2023-04-04T16:47:24.697Z,39.51
2023-04-04T16:53:23.666Z,39.90
2023-04-04T16:59:23.639Z,40.41
2023-04-04T17:05:23.647Z,40.71
2023-04-04T17:11:23.622Z,40.29
2023-04-04T17:17:23.600Z,40.43
2023-04-04T17:23:23.692Z,41.18
2023-04-04T17:29:23.637Z,42.14
2023-04-04T17:35:23.623Z,41.28
2023-04-04T17:41:23.729Z,44.06
2023-04-04T17:47:24.078Z,44.08
2023-04-04T17:53:23.698Z,42.65
2023-04-04T17:59:23.808Z,42.42
2023-04-04T18:05:23.691Z,41.74
2023-04-04T18:11:23.732Z,42.94
2023-04-04T18:17:23.680Z,42.61
2023-04-04T18:23:23.695Z,42.73
2023-04-04T18:29:23.709Z,44.36
2023-04-04T18:35:23.742Z,46.05
2023-04-04T18:41:23.752Z,44.61
2023-04-04T18:47:23.719Z,43.71
2023-04-04T18:53:23.695Z,45.01
2023-04-04T18:59:23.751Z,46.76
2023-04-04T19:05:23.742Z,47.74
2023-04-04T19:11:23.728Z,50.02
2023-04-04T19:17:23.737Z,49.08
2023-04-04T19:23:23.721Z,50.63
2023-04-04T19:29:23.795Z,51.21
2023-04-04T19:35:23.782Z,51.14
2023-04-04T19:41:23.774Z,52.31
2023-04-04T19:47:23.758Z,50.75
2023-04-04T19:53:23.762Z,52.07
2023-04-04T19:59:23.797Z,52.48
2023-04-04T20:11:23.902Z,53.21
2023-04-04T20:17:23.779Z,53.53
2023-04-04T20:23:23.811Z,53.62
2023-04-04T20:29:23.772Z,54.74
2023-04-04T20:35:24.095Z,55.07
2023-04-04T20:41:23.835Z,54.32
2023-04-04T20:47:23.841Z,55.94
2023-04-04T20:53:23.801Z,56.75
2023-04-04T20:59:23.895Z,57.71
2023-04-04T21:05:23.885Z,57.69
2023-04-04T21:11:23.808Z,56.80
2023-04-04T21:17:25.906Z,57.21
2023-04-04T21:23:23.855Z,57.26
2023-04-04T21:29:25.835Z,57.65
2023-04-04T21:35:23.917Z,56.90
2023-04-04T21:41:23.904Z,57.76
2023-04-04T21:47:23.913Z,58.22
2023-04-04T21:53:23.829Z,56.44
2023-04-04T21:59:23.895Z,59.28
2023-04-04T22:05:32.406Z,57.52
2023-04-04T22:11:23.896Z,58.04
2023-04-04T22:17:23.877Z,58.88
2023-04-04T22:23:23.925Z,58.10
2023-04-04T22:29:23.882Z,59.09
2023-04-04T22:35:23.897Z,60.15
2023-04-04T22:41:29.920Z,60.08
2023-04-04T22:47:23.882Z,59.27
2023-04-04T22:53:23.878Z,61.27
2023-04-04T22:59:25.958Z,60.26
2023-04-04T23:05:23.905Z,61.40
2023-04-04T23:11:23.901Z,60.86
2023-04-04T23:17:23.884Z,59.91
2023-04-04T23:23:23.917Z,59.44
2023-04-04T23:29:23.938Z,61.23
2023-04-04T23:35:23.920Z,62.66
2023-04-04T23:41:26.964Z,60.54
2023-04-04T23:47:23.957Z,60.10
2023-04-04T23:53:23.930Z,60.62
2023-04-04T23:59:24.043Z,59.60
